Terminal Aerodrome Forecast
Issued by NWS

Home | Current Version | Previous Version | Text Only | Print | Product List | Glossary On
Versions: 1 2 3 4 5 6 7 8 9 10 11 12 13 14 15 16 17
000
FTUS41 KILN 281137
TAFLCK
TAF
KLCK 281137Z 2812/2912 00000KT 4SM BR BKN027 OVC150
     FM281300 16007KT P6SM SCT027 BKN200
     FM281800 15008KT P6SM BKN170
     FM290000 10006KT P6SM VCSH SCT060 BKN110
     FM290300 18007KT P6SM -SHRA VCTS OVC040CB WS020/22045KT
     FM291000 20005KT P6SM VCSH OVC023=

USA.gov is the U.S. government's official web portal to all federal, state and local government web resources and services.